createdAt,value
2022-11-17T00:01:44.711Z,98454.22
2022-11-17T00:04:48.431Z,98449.56
2022-11-17T00:07:52.484Z,98442.00
2022-11-17T00:10:56.281Z,98448.81
2022-11-17T00:14:18.981Z,98455.31
2022-11-17T00:17:22.891Z,98447.69
2022-11-17T00:20:43.992Z,98444.88
2022-11-17T00:23:51.026Z,98446.69
2022-11-17T00:27:03.520Z,98434.59
2022-11-17T00:30:32.880Z,98434.59
2022-11-17T00:33:59.210Z,98445.88
2022-11-17T00:37:03.573Z,98458.06
2022-11-17T00:40:08.392Z,98446.81
2022-11-17T00:43:12.047Z,98448.31
2022-11-17T00:46:17.201Z,98452.00
2022-11-17T00:49:25.230Z,98456.69
2022-11-17T00:52:28.855Z,98453.81
2022-11-17T00:55:32.539Z,98442.34
2022-11-17T00:58:37.040Z,98460.28
2022-11-17T01:01:42.894Z,98450.84
2022-11-17T01:04:46.770Z,98453.03
2022-11-17T01:07:50.392Z,98446.38
2022-11-17T01:10:53.974Z,98442.50
2022-11-17T01:13:59.463Z,98437.75
2022-11-17T01:17:04.439Z,98438.88
2022-11-17T01:20:09.905Z,98436.53
2022-11-17T01:23:13.817Z,98434.75
2022-11-17T01:26:19.621Z,98429.69
2022-11-17T01:29:23.351Z,98419.84
2022-11-17T01:32:28.517Z,98408.66
2022-11-17T01:35:32.470Z,98409.25
2022-11-17T01:38:36.364Z,98408.22
2022-11-17T01:41:39.871Z,98412.56
2022-11-17T01:44:57.449Z,98403.34
2022-11-17T01:48:04.889Z,98417.78
2022-11-17T01:51:08.751Z,98407.41
2022-11-17T01:54:17.441Z,98408.88
2022-11-17T01:57:26.400Z,98409.06
2022-11-17T02:00:31.111Z,98415.53
2022-11-17T02:03:38.302Z,98416.72
2022-11-17T02:06:42.500Z,98391.19
2022-11-17T02:09:46.421Z,98382.34
2022-11-17T02:12:50.985Z,98396.31
2022-11-17T02:15:54.665Z,98405.28
2022-11-17T02:18:59.709Z,98396.31
2022-11-17T02:22:35.889Z,98393.81
2022-11-17T02:26:10.379Z,98386.47
2022-11-17T02:29:24.210Z,98383.72
2022-11-17T02:32:34.480Z,98372.53
2022-11-17T02:35:46.978Z,98381.53
2022-11-17T02:38:59.959Z,98377.09
2022-11-17T02:42:10.479Z,98381.53
2022-11-17T02:45:18.881Z,98380.84
2022-11-17T02:48:28.493Z,98381.41
2022-11-17T02:51:33.693Z,98363.00
2022-11-17T02:54:37.388Z,98352.78
2022-11-17T02:57:42.430Z,98360.13
2022-11-17T03:00:58.368Z,98358.25
2022-11-17T03:04:27.664Z,98350.91
2022-11-17T03:07:48.485Z,98352.06
2022-11-17T03:10:58.698Z,98352.13
2022-11-17T03:14:10.196Z,98345.66
2022-11-17T03:17:20.958Z,98337.69
2022-11-17T03:20:28.794Z,98344.13
2022-11-17T03:23:40.319Z,98349.78
2022-11-17T03:26:48.839Z,98358.16
2022-11-17T03:29:55.822Z,98358.41
2022-11-17T03:33:06.607Z,98353.63
2022-11-17T03:36:14.802Z,98368.44
2022-11-17T03:39:24.341Z,98364.50
2022-11-17T03:42:31.448Z,98370.13
2022-11-17T03:45:37.418Z,98360.59
2022-11-17T03:48:50.031Z,98348.75
2022-11-17T03:51:54.168Z,98344.94
2022-11-17T03:54:57.946Z,98352.78
2022-11-17T03:58:07.280Z,98366.09
2022-11-17T04:01:11.467Z,98359.47
2022-11-17T04:04:19.077Z,98360.66
2022-11-17T04:07:22.801Z,98355.09
2022-11-17T04:10:26.928Z,98356.25
2022-11-17T04:13:48.117Z,98343.22
2022-11-17T04:16:51.827Z,98339.38
2022-11-17T04:19:56.888Z,98330.59
2022-11-17T04:23:09.496Z,98336.97
2022-11-17T04:26:30.668Z,98338.72
2022-11-17T04:29:34.478Z,98325.47
2022-11-17T04:32:38.277Z,98331.78
2022-11-17T04:35:43.324Z,98329.34
2022-11-17T04:38:48.613Z,98335.66
2022-11-17T04:41:55.131Z,98317.78
2022-11-17T04:44:58.717Z,98296.69
2022-11-17T04:48:02.398Z,98289.97
2022-11-17T04:51:07.687Z,98293.28
2022-11-17T04:54:13.011Z,98286.59
2022-11-17T04:57:16.758Z,98282.31
2022-11-17T05:00:21.049Z,98277.00
2022-11-17T05:03:24.709Z,98276.44
2022-11-17T05:06:32.259Z,98279.50
2022-11-17T05:09:36.019Z,98269.16
2022-11-17T05:12:57.227Z,98274.75
2022-11-17T05:16:18.255Z,98295.06
2022-11-17T05:19:24.096Z,98284.25
2022-11-17T05:22:46.509Z,98280.03
2022-11-17T05:25:50.091Z,98286.91
2022-11-17T05:28:54.270Z,98282.84
2022-11-17T05:31:57.859Z,98280.81
2022-11-17T05:35:01.528Z,98296.75
2022-11-17T05:38:06.629Z,98295.41
2022-11-17T05:41:10.369Z,98308.88
2022-11-17T05:44:14.064Z,98310.50
2022-11-17T05:47:17.940Z,98315.34
2022-11-17T05:50:21.679Z,98310.31
2022-11-17T05:53:27.369Z,98306.66
2022-11-17T05:56:40.148Z,98303.38
2022-11-17T05:59:48.471Z,98312.28
2022-11-17T06:02:56.929Z,98325.66
2022-11-17T06:06:00.611Z,98320.50
2022-11-17T06:09:06.366Z,98321.16
2022-11-17T06:12:12.168Z,98331.19
2022-11-17T06:15:16.000Z,98321.31
2022-11-17T06:18:20.797Z,98318.38
2022-11-17T06:21:24.730Z,98316.53
2022-11-17T06:24:30.371Z,98327.97
2022-11-17T06:27:34.929Z,98329.34
2022-11-17T06:30:40.188Z,98324.16
2022-11-17T06:33:44.299Z,98323.47
2022-11-17T06:36:48.011Z,98326.81
2022-11-17T06:39:53.300Z,98327.19
2022-11-17T06:43:08.692Z,98327.84
2022-11-17T06:46:12.483Z,98322.06
2022-11-17T06:49:16.136Z,98318.16
2022-11-17T06:52:19.860Z,98308.88
2022-11-17T06:55:25.127Z,98298.88
2022-11-17T06:58:29.936Z,98283.84
2022-11-17T07:01:33.842Z,98272.13
2022-11-17T07:04:38.106Z,98265.22
2022-11-17T07:07:41.869Z,98257.81
2022-11-17T07:10:49.404Z,98261.13
2022-11-17T07:13:53.247Z,98267.38
2022-11-17T07:16:57.027Z,98260.88
2022-11-17T07:20:00.777Z,98269.75
2022-11-17T07:23:04.528Z,98266.34
2022-11-17T07:26:10.168Z,98272.91
2022-11-17T07:29:13.966Z,98272.56
2022-11-17T07:32:17.667Z,98271.28
2022-11-17T07:35:21.487Z,98281.19
2022-11-17T07:38:25.226Z,98290.88
2022-11-17T07:41:30.490Z,98295.38
2022-11-17T07:44:34.577Z,98304.53
2022-11-17T07:47:38.371Z,98288.75
2022-11-17T07:50:42.667Z,98299.84
2022-11-17T07:53:46.425Z,98307.63
2022-11-17T07:56:51.717Z,98306.84
2022-11-17T07:59:55.667Z,98298.97
2022-11-17T08:03:02.226Z,98289.28
2022-11-17T08:06:06.657Z,98294.81
2022-11-17T08:09:10.957Z,98304.19
2022-11-17T08:12:16.685Z,98314.31
2022-11-17T08:15:21.547Z,98317.09
2022-11-17T08:18:25.296Z,98314.06
2022-11-17T08:21:29.028Z,98324.78
2022-11-17T08:24:32.785Z,98324.75
2022-11-17T08:27:38.024Z,98331.16
2022-11-17T08:30:41.696Z,98341.06
2022-11-17T08:33:45.573Z,98337.25
2022-11-17T08:36:49.286Z,98348.44
2022-11-17T08:39:53.067Z,98358.66
2022-11-17T08:43:01.175Z,98379.00
2022-11-17T08:46:05.720Z,98396.97
2022-11-17T08:49:09.425Z,98415.81
2022-11-17T08:52:13.127Z,98436.44
2022-11-17T08:55:17.295Z,98447.22
2022-11-17T08:58:22.558Z,98462.19
2022-11-17T09:01:26.255Z,98467.72
2022-11-17T09:04:30.087Z,98471.88
2022-11-17T09:07:35.047Z,98482.59
2022-11-17T09:10:39.333Z,98471.31
2022-11-17T09:13:45.880Z,98473.56
2022-11-17T09:16:49.630Z,98465.72
2022-11-17T09:19:53.424Z,98466.38
2022-11-17T09:23:00.941Z,98457.88
2022-11-17T09:26:07.012Z,98452.72
2022-11-17T09:29:12.386Z,98440.97
2022-11-17T09:32:17.064Z,98424.06
2022-11-17T09:35:23.001Z,98402.78
2022-11-17T09:38:26.943Z,98376.94
2022-11-17T09:41:37.375Z,98360.78
2022-11-17T09:44:49.411Z,98345.22
2022-11-17T09:48:18.626Z,98319.97
2022-11-17T09:51:27.730Z,98318.41
2022-11-17T09:54:42.835Z,98317.25
2022-11-17T09:57:50.662Z,98316.28
2022-11-17T10:00:56.012Z,98308.84
2022-11-17T10:04:01.653Z,98309.25
2022-11-17T10:07:07.087Z,98309.59
2022-11-17T10:10:20.206Z,98304.25
2022-11-17T10:13:28.441Z,98293.09
2022-11-17T10:16:33.660Z,98279.91
2022-11-17T10:19:39.863Z,98287.41
2022-11-17T10:22:44.371Z,98294.75
2022-11-17T10:25:49.421Z,98282.91
2022-11-17T10:29:09.209Z,98272.19
2022-11-17T10:32:17.041Z,98262.91
2022-11-17T10:35:22.327Z,98250.59
2022-11-17T10:38:29.961Z,98258.69
2022-11-17T10:41:39.162Z,98258.25
2022-11-17T10:44:44.651Z,98275.03
2022-11-17T10:47:50.237Z,98262.91
2022-11-17T10:50:56.531Z,98261.03
2022-11-17T10:54:05.831Z,98253.31
2022-11-17T10:57:14.881Z,98260.97
2022-11-17T11:00:28.155Z,98253.31
2022-11-17T11:03:35.166Z,98262.44
2022-11-17T11:06:39.231Z,98268.09
2022-11-17T11:09:49.972Z,98274.41
2022-11-17T11:13:01.411Z,98267.50
2022-11-17T11:16:06.394Z,98264.88
2022-11-17T11:19:16.485Z,98271.63
2022-11-17T11:22:35.383Z,98282.75
2022-11-17T11:25:46.371Z,98272.38
2022-11-17T11:29:04.252Z,98277.34
2022-11-17T11:32:21.912Z,98262.25
2022-11-17T11:35:53.420Z,98271.34
2022-11-17T11:39:01.993Z,98271.50
2022-11-17T11:42:43.297Z,98269.44
2022-11-17T11:45:59.512Z,98264.22
2022-11-17T11:49:18.083Z,98258.31
2022-11-17T11:52:27.956Z,98262.13
2022-11-17T11:55:35.423Z,98281.72
2022-11-17T11:58:46.822Z,98289.72
2022-11-17T12:01:58.110Z,98282.53
2022-11-17T12:05:13.551Z,98278.34
2022-11-17T12:08:27.975Z,98276.28
2022-11-17T12:11:50.591Z,98276.63
2022-11-17T12:15:29.671Z,98276.63
2022-11-17T12:18:33.741Z,98271.72
2022-11-17T12:21:37.761Z,98281.28
2022-11-17T12:24:43.731Z,98280.69
2022-11-17T12:27:50.299Z,98270.19
2022-11-17T12:30:56.894Z,98273.22
2022-11-17T12:34:23.730Z,98268.41
2022-11-17T12:37:27.761Z,98276.31
2022-11-17T12:40:48.377Z,98277.88
2022-11-17T12:43:52.001Z,98276.47
2022-11-17T12:47:07.761Z,98286.38
2022-11-17T12:50:52.631Z,98275.25
2022-11-17T12:54:07.041Z,98280.03
2022-11-17T12:57:18.311Z,98275.13
2022-11-17T13:00:24.551Z,98278.03
2022-11-17T13:03:36.252Z,98276.41
2022-11-17T13:06:59.122Z,98284.69
2022-11-17T13:10:03.121Z,98288.94
2022-11-17T13:13:18.260Z,98287.09
2022-11-17T13:16:23.431Z,98301.59
2022-11-17T13:19:37.284Z,98304.19
2022-11-17T13:22:42.231Z,98299.34
2022-11-17T13:25:46.255Z,98299.31
2022-11-17T13:29:04.661Z,98300.44
2022-11-17T13:32:20.561Z,98294.16
2022-11-17T13:35:28.640Z,98295.53
2022-11-17T13:38:32.582Z,98304.84
2022-11-17T13:41:40.230Z,98310.91
2022-11-17T13:44:48.351Z,98310.16
2022-11-17T13:47:54.000Z,98309.38
2022-11-17T13:50:58.061Z,98316.28
2022-11-17T13:54:04.554Z,98316.50
2022-11-17T13:57:09.928Z,98326.19
2022-11-17T14:00:20.491Z,98322.56
2022-11-17T14:03:37.460Z,98320.28
2022-11-17T14:06:57.298Z,98318.88
2022-11-17T14:10:14.650Z,98326.59
2022-11-17T14:13:24.830Z,98316.88
2022-11-17T14:16:30.980Z,98315.50
2022-11-17T14:19:36.311Z,98320.50
2022-11-17T14:22:40.151Z,98322.31
2022-11-17T14:25:45.916Z,98311.41
2022-11-17T14:28:51.190Z,98315.69
2022-11-17T14:31:55.090Z,98300.06
2022-11-17T14:35:00.441Z,98307.16
2022-11-17T14:38:04.380Z,98316.47
2022-11-17T14:41:08.381Z,98321.50
2022-11-17T14:44:12.500Z,98333.47
2022-11-17T14:47:16.304Z,98328.63
2022-11-17T14:50:21.630Z,98328.63
2022-11-17T14:53:25.938Z,98323.75
2022-11-17T14:56:29.951Z,98325.38
2022-11-17T14:59:33.670Z,98340.31
2022-11-17T15:02:38.200Z,98335.88
2022-11-17T15:05:47.253Z,98346.41
2022-11-17T15:08:55.430Z,98352.03
2022-11-17T15:11:59.273Z,98355.09
2022-11-17T15:15:02.990Z,98347.19
2022-11-17T15:18:06.831Z,98345.38
2022-11-17T15:21:12.220Z,98341.94
2022-11-17T15:24:16.315Z,98330.59
2022-11-17T15:27:20.090Z,98331.19
2022-11-17T15:30:24.230Z,98337.91
2022-11-17T15:33:27.961Z,98342.94
2022-11-17T15:36:33.323Z,98336.84
2022-11-17T15:39:37.240Z,98336.81
2022-11-17T15:42:41.052Z,98337.47
2022-11-17T15:45:44.621Z,98340.91
2022-11-17T15:48:52.427Z,98335.69
2022-11-17T15:51:57.670Z,98345.38
2022-11-17T15:55:01.422Z,98345.56
2022-11-17T15:58:05.071Z,98359.09
2022-11-17T16:01:11.134Z,98355.78
2022-11-17T16:04:16.703Z,98350.97
2022-11-17T16:07:27.043Z,98360.06
2022-11-17T16:10:30.941Z,98366.88
2022-11-17T16:13:35.000Z,98364.06
2022-11-17T16:16:40.999Z,98368.34
2022-11-17T16:19:44.703Z,98376.41
2022-11-17T16:22:49.861Z,98374.19
2022-11-17T16:25:53.662Z,98380.06
2022-11-17T16:28:58.950Z,98380.38
2022-11-17T16:32:02.821Z,98394.16
2022-11-17T16:35:07.161Z,98399.78
2022-11-17T16:38:16.801Z,98400.78
2022-11-17T16:41:20.581Z,98406.00
2022-11-17T16:44:24.392Z,98402.56
2022-11-17T16:47:28.771Z,98415.06
2022-11-17T16:50:32.521Z,98410.44
2022-11-17T16:53:37.712Z,98425.94
2022-11-17T16:56:41.462Z,98419.63
2022-11-17T16:59:45.331Z,98425.03
2022-11-17T17:02:50.663Z,98432.84
2022-11-17T17:05:54.483Z,98423.25
2022-11-17T17:09:01.490Z,98428.09
2022-11-17T17:12:05.622Z,98435.59
2022-11-17T17:15:10.253Z,98445.25
2022-11-17T17:18:14.042Z,98446.69
2022-11-17T17:21:19.752Z,98456.19
2022-11-17T17:24:24.891Z,98453.06
2022-11-17T17:27:31.735Z,98449.53
2022-11-17T17:30:35.471Z,98451.28
2022-11-17T17:33:39.543Z,98450.69
2022-11-17T17:36:43.292Z,98457.94
2022-11-17T17:39:48.514Z,98461.25
2022-11-17T17:42:52.279Z,98463.69
2022-11-17T17:46:00.850Z,98464.47
2022-11-17T17:49:05.291Z,98466.50
2022-11-17T17:52:13.635Z,98458.63
2022-11-17T17:55:19.071Z,98459.59
2022-11-17T17:58:22.682Z,98474.13
2022-11-17T18:01:30.472Z,98471.72
2022-11-17T18:04:34.202Z,98481.91
2022-11-17T18:07:37.923Z,98475.78
2022-11-17T18:10:43.179Z,98476.75
2022-11-17T18:13:48.569Z,98473.28
2022-11-17T18:16:52.842Z,98474.13
2022-11-17T18:19:56.701Z,98467.88
2022-11-17T18:23:00.474Z,98479.34
2022-11-17T18:26:12.279Z,98473.44
2022-11-17T18:29:18.680Z,98468.03
2022-11-17T18:32:22.563Z,98470.28
2022-11-17T18:35:26.428Z,98466.50
2022-11-17T18:38:30.261Z,98470.50
2022-11-17T18:41:36.833Z,98463.56
2022-11-17T18:44:40.631Z,98464.34
2022-11-17T18:47:44.381Z,98469.81
2022-11-17T18:51:17.726Z,98471.03
2022-11-17T18:54:12.835Z,98474.47
2022-11-17T18:57:19.084Z,98484.13
2022-11-17T19:00:23.521Z,98483.56
2022-11-17T19:03:27.452Z,98478.69
2022-11-17T19:06:32.830Z,98486.94
2022-11-17T19:09:36.630Z,98490.19
2022-11-17T19:12:41.835Z,98485.13
2022-11-17T19:15:45.651Z,98485.19
2022-11-17T19:18:51.151Z,98491.41
2022-11-17T19:21:55.462Z,98487.75
2022-11-17T19:24:59.232Z,98488.72
2022-11-17T19:28:04.501Z,98486.28
2022-11-17T19:31:11.092Z,98500.66
2022-11-17T19:34:15.060Z,98493.91
2022-11-17T19:37:18.751Z,98499.63
2022-11-17T19:40:22.501Z,98500.47
2022-11-17T19:43:27.611Z,98508.94
2022-11-17T19:46:31.662Z,98508.81
2022-11-17T19:49:35.499Z,98521.31
2022-11-17T19:52:39.132Z,98513.75
2022-11-17T19:55:42.962Z,98518.31
2022-11-17T19:58:48.860Z,98506.44
2022-11-17T20:01:52.662Z,98518.84
2022-11-17T20:04:56.571Z,98507.50
2022-11-17T20:08:00.670Z,98522.53
2022-11-17T20:11:09.153Z,98523.69
2022-11-17T20:14:15.641Z,98524.50
2022-11-17T20:17:19.301Z,98524.16
2022-11-17T20:20:23.141Z,98523.25
2022-11-17T20:23:26.932Z,98519.28
2022-11-17T20:26:32.773Z,98521.34
2022-11-17T20:29:38.051Z,98516.75
2022-11-17T20:32:41.831Z,98516.09
2022-11-17T20:35:45.570Z,98512.31
2022-11-17T20:38:52.252Z,98516.22
2022-11-17T20:41:55.941Z,98521.09
2022-11-17T20:45:01.077Z,98524.22
2022-11-17T20:48:04.892Z,98525.47
2022-11-17T20:51:12.332Z,98526.75
2022-11-17T20:54:16.232Z,98515.31
2022-11-17T20:57:20.472Z,98514.56
2022-11-17T21:00:25.861Z,98512.88
2022-11-17T21:03:29.661Z,98515.44
2022-11-17T21:06:33.487Z,98512.06
2022-11-17T21:09:37.238Z,98514.38
2022-11-17T21:12:40.873Z,98515.66
2022-11-17T21:15:47.234Z,98507.28
2022-11-17T21:18:51.171Z,98517.44
2022-11-17T21:21:55.331Z,98515.22
2022-11-17T21:24:59.041Z,98520.13
2022-11-17T21:28:02.760Z,98521.75
2022-11-17T21:31:10.061Z,98525.53
2022-11-17T21:34:16.983Z,98516.63
2022-11-17T21:37:21.303Z,98519.25
2022-11-17T21:40:25.213Z,98521.75
2022-11-17T21:43:28.941Z,98520.44
2022-11-17T21:46:35.471Z,98526.16
2022-11-17T21:49:39.291Z,98512.94
2022-11-17T21:52:43.271Z,98527.16
2022-11-17T21:55:47.061Z,98525.22
2022-11-17T21:58:55.360Z,98527.50
2022-11-17T22:02:00.551Z,98528.31
2022-11-17T22:05:04.211Z,98530.00
2022-11-17T22:08:07.971Z,98539.66
2022-11-17T22:11:12.932Z,98530.53
2022-11-17T22:14:18.431Z,98541.38
2022-11-17T22:17:23.672Z,98541.38
2022-11-17T22:20:27.531Z,98535.31
2022-11-17T22:23:31.661Z,98544.81
2022-11-17T22:26:38.576Z,98546.72
2022-11-17T22:29:42.446Z,98546.44
2022-11-17T22:32:48.013Z,98544.94
2022-11-17T22:35:52.047Z,98532.50
2022-11-17T22:38:55.954Z,98529.78
2022-11-17T22:41:59.694Z,98541.84
2022-11-17T22:45:03.553Z,98539.19
2022-11-17T22:48:09.696Z,98542.44
2022-11-17T22:51:34.031Z,98544.97
2022-11-17T22:54:38.189Z,98543.97
2022-11-17T22:57:41.860Z,98544.09
2022-11-17T23:00:46.011Z,98542.34
2022-11-17T23:03:51.402Z,98539.81
2022-11-17T23:06:55.265Z,98535.47
2022-11-17T23:09:59.072Z,98538.84
2022-11-17T23:13:02.891Z,98538.72
2022-11-17T23:16:07.491Z,98533.88
2022-11-17T23:19:15.769Z,98537.00
2022-11-17T23:22:20.094Z,98532.16
2022-11-17T23:25:23.861Z,98536.19
2022-11-17T23:28:27.602Z,98531.88
2022-11-17T23:31:31.358Z,98538.03
2022-11-17T23:34:36.509Z,98533.97
2022-11-17T23:37:40.161Z,98532.44
2022-11-17T23:40:44.084Z,98531.94
2022-11-17T23:43:48.232Z,98534.03
2022-11-17T23:46:52.011Z,98543.06
2022-11-17T23:49:57.443Z,98537.28
2022-11-17T23:53:01.186Z,98543.94
2022-11-17T23:56:06.231Z,98545.09
2022-11-17T23:59:10.131Z,98544.25
